sensor_id;sensor_type;location;lat;lon;timestamp;pressure;altitude;pressure_sealevel;temperature;humidity
35121;BME280;21297;52.008;4.576;2023-08-17T00:02:00;51154.81;;;-143.47;86.24
35121;BME280;21297;52.008;4.576;2023-08-17T00:04:46;51127.25;;;-143.47;84.68
35121;BME280;21297;52.008;4.576;2023-08-17T00:07:32;51379.09;;;-143.47;83.77
35121;BME280;21297;52.008;4.576;2023-08-17T00:10:18;51392.88;;;-143.47;82.73
35121;BME280;21297;52.008;4.576;2023-08-17T00:13:04;51217.75;;;-143.47;81.97
35121;BME280;21297;52.008;4.576;2023-08-17T00:15:49;51089.88;;;-143.47;81.42
35121;BME280;21297;52.008;4.576;2023-08-17T00:18:35;51349.59;;;-143.47;81.63
35121;BME280;21297;52.008;4.576;2023-08-17T00:21:21;51070.19;;;-143.47;81.52
35121;BME280;21297;52.008;4.576;2023-08-17T00:24:07;51394.84;;;-143.47;81.50
35121;BME280;21297;52.008;4.576;2023-08-17T00:26:53;51129.22;;;-143.47;81.30
35121;BME280;21297;52.008;4.576;2023-08-17T00:29:38;51229.56;;;-143.47;81.67
35121;BME280;21297;52.008;4.576;2023-08-17T00:32:24;51101.69;;;-143.47;82.45
35121;BME280;21297;52.008;4.576;2023-08-17T00:35:10;51152.84;;;-143.47;82.54
35121;BME280;21297;52.008;4.576;2023-08-17T00:37:55;51396.81;;;-143.47;81.69
35121;BME280;21297;52.008;4.576;2023-08-17T00:40:41;51123.31;;;-143.47;81.37
35121;BME280;21297;52.008;4.576;2023-08-17T00:43:27;51406.66;;;-143.47;81.76
35121;BME280;21297;52.008;4.576;2023-08-17T00:46:12;51371.25;;;-143.47;82.38
35121;BME280;21297;52.008;4.576;2023-08-17T00:48:59;51243.34;;;-143.47;82.73
35121;BME280;21297;52.008;4.576;2023-08-17T00:51:45;51251.22;;;-143.47;82.85
35121;BME280;21297;52.008;4.576;2023-08-17T00:54:31;51270.88;;;-143.47;83.08
35121;BME280;21297;52.008;4.576;2023-08-17T00:57:16;51282.69;;;-143.47;83.00
35121;BME280;21297;52.008;4.576;2023-08-17T01:00:03;51144.97;;;-143.47;83.49
35121;BME280;21297;52.008;4.576;2023-08-17T01:02:50;51227.59;;;-143.47;84.33
35121;BME280;21297;52.008;4.576;2023-08-17T01:05:36;51294.50;;;-143.47;83.55
35121;BME280;21297;52.008;4.576;2023-08-17T01:08:23;51292.53;;;-143.47;82.96
35121;BME280;21297;52.008;4.576;2023-08-17T01:17:11;51375.16;;;-143.47;83.52
35121;BME280;21297;52.008;4.576;2023-08-17T01:19:58;51129.22;;;-143.47;81.62
35121;BME280;21297;52.008;4.576;2023-08-17T01:22:45;51503.06;;;-143.47;81.57
35121;BME280;21297;52.008;4.576;2023-08-17T01:25:33;51324.00;;;-143.47;82.43
35121;BME280;21297;52.008;4.576;2023-08-17T01:28:22;51379.09;;;-143.47;82.68
35121;BME280;21297;52.008;4.576;2023-08-17T01:31:19;51318.13;;;-143.47;82.55
35121;BME280;21297;52.008;4.576;2023-08-17T01:34:11;51070.19;;;-143.47;83.31
35121;BME280;21297;52.008;4.576;2023-08-17T01:37:07;51089.88;;;-143.47;81.87
35121;BME280;21297;52.008;4.576;2023-08-17T01:39:55;51552.25;;;-143.47;82.55
35121;BME280;21297;52.008;4.576;2023-08-17T01:42:42;51207.94;;;-143.47;82.96
35121;BME280;21297;52.008;4.576;2023-08-17T01:45:29;51156.78;;;-143.47;82.60
35121;BME280;21297;52.008;4.576;2023-08-17T01:48:15;51074.13;;;-143.47;82.54
35121;BME280;21297;52.008;4.576;2023-08-17T01:51:00;51105.63;;;-143.47;83.57
35121;BME280;21297;52.008;4.576;2023-08-17T01:53:47;50979.69;;;-143.47;83.55
35121;BME280;21297;52.008;4.576;2023-08-17T01:56:32;51074.13;;;-143.47;84.66
35121;BME280;21297;52.008;4.576;2023-08-17T01:59:18;50999.38;;;-143.47;84.32
35121;BME280;21297;52.008;4.576;2023-08-17T02:02:03;51284.66;;;-143.47;85.00
35121;BME280;21297;52.008;4.576;2023-08-17T02:04:49;50944.28;;;-143.47;85.79
35121;BME280;21297;52.008;4.576;2023-08-17T02:07:35;51143.00;;;-143.47;84.65
35121;BME280;21297;52.008;4.576;2023-08-17T02:10:20;51217.75;;;-143.47;84.21
35121;BME280;21297;52.008;4.576;2023-08-17T02:13:06;51158.75;;;-143.47;86.29
35121;BME280;21297;52.008;4.576;2023-08-17T02:15:52;51180.38;;;-143.47;87.38
35121;BME280;21297;52.008;4.576;2023-08-17T02:18:37;51176.44;;;-143.47;87.93
35121;BME280;21297;52.008;4.576;2023-08-17T02:21:23;51003.31;;;-143.47;88.35
35121;BME280;21297;52.008;4.576;2023-08-17T02:24:08;51007.25;;;-143.47;88.69
35121;BME280;21297;52.008;4.576;2023-08-17T02:26:54;51158.75;;;-143.47;89.13
35121;BME280;21297;52.008;4.576;2023-08-17T02:29:40;51150.88;;;-143.47;88.56
35121;BME280;21297;52.008;4.576;2023-08-17T02:32:25;51066.25;;;-143.47;88.53
35121;BME280;21297;52.008;4.576;2023-08-17T02:35:11;50960.03;;;-143.47;88.24
35121;BME280;21297;52.008;4.576;2023-08-17T02:37:57;50965.94;;;-143.47;89.82
35121;BME280;21297;52.008;4.576;2023-08-17T02:40:42;50914.78;;;-143.47;90.88
35121;BME280;21297;52.008;4.576;2023-08-17T02:43:28;51054.47;;;-143.47;90.63
35121;BME280;21297;52.008;4.576;2023-08-17T02:46:14;51166.59;;;-143.47;89.34
35121;BME280;21297;52.008;4.576;2023-08-17T02:48:59;50965.94;;;-143.47;88.53
35121;BME280;21297;52.008;4.576;2023-08-17T02:51:45;50987.56;;;-143.47;90.41
35121;BME280;21297;52.008;4.576;2023-08-17T02:54:31;50865.59;;;-143.47;89.22
35121;BME280;21297;52.008;4.576;2023-08-17T02:57:16;50965.94;;;-143.47;89.39
35121;BME280;21297;52.008;4.576;2023-08-17T03:00:04;50948.22;;;-143.47;88.11
35121;BME280;21297;52.008;4.576;2023-08-17T03:02:50;51048.56;;;-143.47;87.20
35121;BME280;21297;52.008;4.576;2023-08-17T03:05:35;51044.63;;;-143.47;86.76
35121;BME280;21297;52.008;4.576;2023-08-17T03:08:21;51144.97;;;-143.47;87.50
35121;BME280;21297;52.008;4.576;2023-08-17T03:11:06;51129.22;;;-143.47;87.17
35121;BME280;21297;52.008;4.576;2023-08-17T03:13:52;50946.25;;;-143.47;87.40
35121;BME280;21297;52.008;4.576;2023-08-17T03:16:45;50991.50;;;-143.47;87.63
35121;BME280;21297;52.008;4.576;2023-08-17T03:19:30;51009.22;;;-143.47;87.55
35121;BME280;21297;52.008;4.576;2023-08-17T03:22:16;51121.34;;;-143.47;88.55
35121;BME280;21297;52.008;4.576;2023-08-17T03:25:02;51152.84;;;-143.47;88.70
35121;BME280;21297;52.008;4.576;2023-08-17T03:27:48;51009.22;;;-143.47;89.98
35121;BME280;21297;52.008;4.576;2023-08-17T03:30:33;50977.72;;;-143.47;88.53
35121;BME280;21297;52.008;4.576;2023-08-17T03:33:19;51196.13;;;-143.47;90.24
35121;BME280;21297;52.008;4.576;2023-08-17T03:36:05;51259.09;;;-143.47;89.37
35121;BME280;21297;52.008;4.576;2023-08-17T03:38:51;51085.94;;;-143.47;90.01
35121;BME280;21297;52.008;4.576;2023-08-17T03:41:36;51015.13;;;-143.47;89.86
35121;BME280;21297;52.008;4.576;2023-08-17T03:44:22;51085.94;;;-143.47;89.47
35121;BME280;21297;52.008;4.576;2023-08-17T03:47:08;51237.44;;;-143.47;89.71
35121;BME280;21297;52.008;4.576;2023-08-17T03:49:54;51005.28;;;-143.47;90.44
35121;BME280;21297;52.008;4.576;2023-08-17T03:52:39;51188.25;;;-143.47;91.07
35121;BME280;21297;52.008;4.576;2023-08-17T03:55:25;50936.41;;;-143.47;91.91
35121;BME280;21297;52.008;4.576;2023-08-17T03:58:10;51003.31;;;-143.47;92.28
35121;BME280;21297;52.008;4.576;2023-08-17T04:00:56;50999.38;;;-143.47;92.70
35121;BME280;21297;52.008;4.576;2023-08-17T04:03:42;51062.34;;;-143.47;92.58
35121;BME280;21297;52.008;4.576;2023-08-17T04:06:27;50962.00;;;-143.47;93.62
35121;BME280;21297;52.008;4.576;2023-08-17T04:09:13;50967.91;;;-143.47;93.90
35121;BME280;21297;52.008;4.576;2023-08-17T04:11:59;51133.16;;;-143.47;93.20
35121;BME280;21297;52.008;4.576;2023-08-17T04:14:44;51176.44;;;-143.47;92.71
35121;BME280;21297;52.008;4.576;2023-08-17T04:17:30;50995.44;;;-143.47;93.32
35121;BME280;21297;52.008;4.576;2023-08-17T04:20:17;51125.28;;;-143.47;92.79
35121;BME280;21297;52.008;4.576;2023-08-17T04:23:04;51030.84;;;-143.47;93.22
35121;BME280;21297;52.008;4.576;2023-08-17T04:25:49;51233.50;;;-143.47;92.56
35121;BME280;21297;52.008;4.576;2023-08-17T04:28:35;51111.53;;;-143.47;92.85
35121;BME280;21297;52.008;4.576;2023-08-17T04:31:20;51117.41;;;-143.47;92.74
35121;BME280;21297;52.008;4.576;2023-08-17T04:34:06;51097.75;;;-143.47;92.90
35121;BME280;21297;52.008;4.576;2023-08-17T04:36:52;51074.13;;;-143.47;92.14
35121;BME280;21297;52.008;4.576;2023-08-17T04:39:38;51058.41;;;-143.47;91.87
35121;BME280;21297;52.008;4.576;2023-08-17T04:42:23;51259.09;;;-143.47;91.87
35121;BME280;21297;52.008;4.576;2023-08-17T04:45:10;51180.38;;;-143.47;91.44
35121;BME280;21297;52.008;4.576;2023-08-17T04:47:55;51162.69;;;-143.47;91.64
35121;BME280;21297;52.008;4.576;2023-08-17T04:50:41;51021.00;;;-143.47;91.02
35121;BME280;21297;52.008;4.576;2023-08-17T04:53:27;51217.75;;;-143.47;90.20
35121;BME280;21297;52.008;4.576;2023-08-17T04:56:13;51013.16;;;-143.47;90.50
35121;BME280;21297;52.008;4.576;2023-08-17T04:58:58;51204.00;;;-143.47;90.14
35121;BME280;21297;52.008;4.576;2023-08-17T05:01:44;51359.44;;;-143.47;90.06
35121;BME280;21297;52.008;4.576;2023-08-17T05:04:30;51070.19;;;-143.47;89.80
35121;BME280;21297;52.008;4.576;2023-08-17T05:07:16;51127.25;;;-143.47;90.03
35121;BME280;21297;52.008;4.576;2023-08-17T05:10:02;51359.44;;;-143.47;89.15
35121;BME280;21297;52.008;4.576;2023-08-17T05:12:48;51290.56;;;-143.47;89.22
35121;BME280;21297;52.008;4.576;2023-08-17T05:15:33;51148.91;;;-143.47;89.20
35121;BME280;21297;52.008;4.576;2023-08-17T05:18:19;51227.59;;;-143.47;89.62
35121;BME280;21297;52.008;4.576;2023-08-17T05:21:05;51361.41;;;-143.47;89.62
35121;BME280;21297;52.008;4.576;2023-08-17T05:23:50;51325.97;;;-143.47;89.71
35121;BME280;21297;52.008;4.576;2023-08-17T05:26:36;51266.94;;;-143.47;89.90
35121;BME280;21297;52.008;4.576;2023-08-17T05:29:22;51223.66;;;-143.47;89.41
35121;BME280;21297;52.008;4.576;2023-08-17T05:32:07;51381.06;;;-143.47;88.71
35121;BME280;21297;52.008;4.576;2023-08-17T05:34:53;51438.13;;;-143.47;89.06
35121;BME280;21297;52.008;4.576;2023-08-17T05:37:38;51219.72;;;-143.47;88.79
35121;BME280;21297;52.008;4.576;2023-08-17T05:40:24;51337.78;;;-143.47;87.85
35121;BME280;21297;52.008;4.576;2023-08-17T05:43:10;51392.88;;;-143.47;88.36
35121;BME280;21297;52.008;4.576;2023-08-17T05:45:57;51341.72;;;-143.47;87.91
35121;BME280;21297;52.008;4.576;2023-08-17T05:48:44;51255.16;;;-143.47;87.43
35121;BME280;21297;52.008;4.576;2023-08-17T05:51:30;51355.50;;;-143.47;87.18
35121;BME280;21297;52.008;4.576;2023-08-17T05:54:15;51274.81;;;-143.47;87.08
35121;BME280;21297;52.008;4.576;2023-08-17T05:57:02;51227.59;;;-143.47;87.93
35121;BME280;21297;52.008;4.576;2023-08-17T05:59:47;51341.72;;;-143.47;86.64
35121;BME280;21297;52.008;4.576;2023-08-17T06:02:33;51444.03;;;-143.47;86.09
35121;BME280;21297;52.008;4.576;2023-08-17T06:05:19;51505.03;;;-143.47;85.67
35121;BME280;21297;52.008;4.576;2023-08-17T06:08:04;51463.72;;;-143.47;85.14
35121;BME280;21297;52.008;4.576;2023-08-17T06:10:50;51532.59;;;-143.47;84.83
35121;BME280;21297;52.008;4.576;2023-08-17T06:13:36;51310.25;;;-143.47;85.39
35121;BME280;21297;52.008;4.576;2023-08-17T06:16:21;51396.81;;;-143.47;85.54
35121;BME280;21297;52.008;4.576;2023-08-17T06:19:07;51518.81;;;-143.47;84.67
35121;BME280;21297;52.008;4.576;2023-08-17T06:21:53;51493.22;;;-143.47;84.82
35121;BME280;21297;52.008;4.576;2023-08-17T06:24:38;51310.25;;;-143.47;84.22
35121;BME280;21297;52.008;4.576;2023-08-17T06:27:24;51569.97;;;-143.47;85.69
35121;BME280;21297;52.008;4.576;2023-08-17T06:30:10;51634.91;;;-143.47;85.44
35121;BME280;21297;52.008;4.576;2023-08-17T06:33:00;51609.31;;;-143.47;85.81
35121;BME280;21297;52.008;4.576;2023-08-17T06:35:45;51473.56;;;-143.47;85.87
35121;BME280;21297;52.008;4.576;2023-08-17T06:38:33;51335.81;;;-143.47;86.03
35121;BME280;21297;52.008;4.576;2023-08-17T06:41:19;51459.78;;;-143.47;86.39
35121;BME280;21297;52.008;4.576;2023-08-17T06:44:05;51656.56;;;-143.47;86.79
35121;BME280;21297;52.008;4.576;2023-08-17T06:46:51;51546.34;;;-143.47;86.23
35121;BME280;21297;52.008;4.576;2023-08-17T06:49:38;51640.81;;;-143.47;86.94
35121;BME280;21297;52.008;4.576;2023-08-17T06:52:25;51447.97;;;-143.47;86.36
35121;BME280;21297;52.008;4.576;2023-08-17T06:55:10;51554.22;;;-143.47;86.73
35121;BME280;21297;52.008;4.576;2023-08-17T06:58:08;51434.19;;;-143.47;86.42
35121;BME280;21297;52.008;4.576;2023-08-17T07:00:54;51802.16;;;-143.47;86.79
35121;BME280;21297;52.008;4.576;2023-08-17T07:03:40;51855.31;;;-143.47;86.89
35121;BME280;21297;52.008;4.576;2023-08-17T07:06:25;51733.28;;;-143.47;86.29
35121;BME280;21297;52.008;4.576;2023-08-17T07:09:11;51896.63;;;-143.47;85.23
35121;BME280;21297;52.008;4.576;2023-08-17T07:11:57;51550.28;;;-143.47;85.53
35121;BME280;21297;52.008;4.576;2023-08-17T07:14:43;51658.53;;;-143.47;85.95
35121;BME280;21297;52.008;4.576;2023-08-17T07:17:29;51721.50;;;-143.47;87.06
35121;BME280;21297;52.008;4.576;2023-08-17T07:20:14;51564.06;;;-143.47;86.48
35121;BME280;21297;52.008;4.576;2023-08-17T07:23:00;51987.16;;;-143.47;87.07
35121;BME280;21297;52.008;4.576;2023-08-17T07:25:46;51652.63;;;-143.47;87.20
35121;BME280;21297;52.008;4.576;2023-08-17T07:28:33;51636.88;;;-143.47;83.54
35121;BME280;21297;52.008;4.576;2023-08-17T07:31:19;51727.41;;;-143.47;82.71
35121;BME280;21297;52.008;4.576;2023-08-17T07:34:05;52006.84;;;-143.47;81.27
35121;BME280;21297;52.008;4.576;2023-08-17T07:36:51;52040.28;;;-143.47;81.19
35121;BME280;21297;52.008;4.576;2023-08-17T07:39:37;52191.81;;;-143.47;79.97
35121;BME280;21297;52.008;4.576;2023-08-17T07:42:23;51825.78;;;-143.47;77.82
35121;BME280;21297;52.008;4.576;2023-08-17T07:45:08;52091.44;;;-143.47;78.52
35121;BME280;21297;52.008;4.576;2023-08-17T07:47:55;52109.16;;;-143.47;78.51
35121;BME280;21297;52.008;4.576;2023-08-17T07:50:40;51831.69;;;-143.47;78.24
35121;BME280;21297;52.008;4.576;2023-08-17T07:53:26;52148.53;;;-143.47;78.13
35121;BME280;21297;52.008;4.576;2023-08-17T07:56:12;51934.03;;;-143.47;78.62
35121;BME280;21297;52.008;4.576;2023-08-17T07:58:58;51993.06;;;-143.47;80.04
35121;BME280;21297;52.008;4.576;2023-08-17T08:01:43;52006.84;;;-143.47;79.76
35121;BME280;21297;52.008;4.576;2023-08-17T08:04:29;52054.06;;;-143.47;78.61
35121;BME280;21297;52.008;4.576;2023-08-17T08:07:15;51778.56;;;-143.47;78.97
35121;BME280;21297;52.008;4.576;2023-08-17T08:10:00;51953.69;;;-143.47;79.79
35121;BME280;21297;52.008;4.576;2023-08-17T08:12:46;52142.63;;;-143.47;79.23
35121;BME280;21297;52.008;4.576;2023-08-17T08:15:33;52111.13;;;-143.47;79.24
35121;BME280;21297;52.008;4.576;2023-08-17T08:18:18;52288.25;;;-143.47;77.20
35121;BME280;21297;52.008;4.576;2023-08-17T08:21:04;52276.44;;;-143.47;77.73
35121;BME280;21297;52.008;4.576;2023-08-17T08:23:50;52136.72;;;-143.47;77.13
35121;BME280;21297;52.008;4.576;2023-08-17T08:26:35;52445.72;;;-143.47;75.70
35121;BME280;21297;52.008;4.576;2023-08-17T08:29:21;52156.41;;;-143.47;74.61
35121;BME280;21297;52.008;4.576;2023-08-17T08:32:06;52176.09;;;-143.47;73.63
35121;BME280;21297;52.008;4.576;2023-08-17T08:34:52;52180.00;;;-143.47;75.37
35121;BME280;21297;52.008;4.576;2023-08-17T08:37:38;52093.41;;;-143.47;74.95
35121;BME280;21297;52.008;4.576;2023-08-17T08:40:30;52107.19;;;-143.47;74.61
35121;BME280;21297;52.008;4.576;2023-08-17T08:43:16;52487.03;;;-143.47;75.80
35121;BME280;21297;52.008;4.576;2023-08-17T08:46:02;52282.34;;;-143.47;76.32
35121;BME280;21297;52.008;4.576;2023-08-17T08:48:50;52203.63;;;-143.47;74.80
35121;BME280;21297;52.008;4.576;2023-08-17T08:51:40;52156.41;;;-143.47;74.27
35121;BME280;21297;52.008;4.576;2023-08-17T08:54:28;52178.03;;;-143.47;73.00
35121;BME280;21297;52.008;4.576;2023-08-17T08:57:15;52278.41;;;-143.47;72.49
35121;BME280;21297;52.008;4.576;2023-08-17T09:00:02;52180.00;;;-143.47;74.80
35121;BME280;21297;52.008;4.576;2023-08-17T09:02:49;52136.72;;;-143.47;71.73
35121;BME280;21297;52.008;4.576;2023-08-17T09:05:36;52191.81;;;-143.47;72.89
35121;BME280;21297;52.008;4.576;2023-08-17T09:08:27;52581.50;;;-143.47;73.42
35121;BME280;21297;52.008;4.576;2023-08-17T09:11:12;52514.59;;;-143.47;70.77
35121;BME280;21297;52.008;4.576;2023-08-17T09:13:58;52575.59;;;-143.47;69.32
35121;BME280;21297;52.008;4.576;2023-08-17T09:16:44;52459.50;;;-143.47;69.77
35121;BME280;21297;52.008;4.576;2023-08-17T09:19:33;52286.28;;;-143.47;71.48
35121;BME280;21297;52.008;4.576;2023-08-17T09:22:36;52587.41;;;-143.47;70.37
35121;BME280;21297;52.008;4.576;2023-08-17T09:25:22;52593.31;;;-143.47;70.63
35121;BME280;21297;52.008;4.576;2023-08-17T09:28:18;52282.34;;;-143.47;70.30
35121;BME280;21297;52.008;4.576;2023-08-17T09:31:04;52378.78;;;-143.47;71.01
35121;BME280;21297;52.008;4.576;2023-08-17T09:33:50;52435.88;;;-143.47;70.05
35121;BME280;21297;52.008;4.576;2023-08-17T09:36:36;52327.63;;;-143.47;71.15
35121;BME280;21297;52.008;4.576;2023-08-17T09:39:23;52514.59;;;-143.47;69.65
35121;BME280;21297;52.008;4.576;2023-08-17T09:42:10;52394.53;;;-143.47;71.64
35121;BME280;21297;52.008;4.576;2023-08-17T09:44:58;52439.81;;;-143.47;70.73
35121;BME280;21297;52.008;4.576;2023-08-17T09:47:46;52709.44;;;-143.47;69.12
35121;BME280;21297;52.008;4.576;2023-08-17T09:50:32;52546.09;;;-143.47;70.26
35121;BME280;21297;52.008;4.576;2023-08-17T09:53:18;52489.00;;;-143.47;68.46
35121;BME280;21297;52.008;4.576;2023-08-17T09:56:06;52731.09;;;-143.47;66.58
35121;BME280;21297;52.008;4.576;2023-08-17T09:58:56;52510.66;;;-143.47;66.80
35121;BME280;21297;52.008;4.576;2023-08-17T10:01:42;52546.09;;;-143.47;67.02
35121;BME280;21297;52.008;4.576;2023-08-17T10:04:31;52760.63;;;-143.47;66.47
35121;BME280;21297;52.008;4.576;2023-08-17T10:07:24;52796.06;;;-143.47;66.21
35121;BME280;21297;52.008;4.576;2023-08-17T10:10:16;52689.78;;;-143.47;66.57
35121;BME280;21297;52.008;4.576;2023-08-17T10:13:12;52394.53;;;-143.47;66.55
35121;BME280;21297;52.008;4.576;2023-08-17T10:16:07;52829.53;;;-143.47;66.80
35121;BME280;21297;52.008;4.576;2023-08-17T10:19:05;52770.47;;;-143.47;67.71
35121;BME280;21297;52.008;4.576;2023-08-17T10:22:08;52794.09;;;-143.47;67.54
35121;BME280;21297;52.008;4.576;2023-08-17T10:25:03;52910.22;;;-143.47;67.10
35121;BME280;21297;52.008;4.576;2023-08-17T10:27:51;52542.16;;;-143.47;66.85
35121;BME280;21297;52.008;4.576;2023-08-17T10:30:38;52522.47;;;-143.47;67.66
35121;BME280;21297;52.008;4.576;2023-08-17T10:33:25;52538.22;;;-143.47;66.07
35121;BME280;21297;52.008;4.576;2023-08-17T10:36:12;52949.59;;;-143.47;65.53
35121;BME280;21297;52.008;4.576;2023-08-17T10:39:21;52967.31;;;-143.47;64.92
35121;BME280;21297;52.008;4.576;2023-08-17T10:42:08;53116.91;;;-143.47;64.76
35121;BME280;21297;52.008;4.576;2023-08-17T10:44:53;52914.16;;;-143.47;64.61
35121;BME280;21297;52.008;4.576;2023-08-17T10:47:39;52815.75;;;-143.47;64.64
35121;BME280;21297;52.008;4.576;2023-08-17T10:50:25;52786.22;;;-143.47;63.91
35121;BME280;21297;52.008;4.576;2023-08-17T10:53:12;52880.69;;;-143.47;64.66
35121;BME280;21297;52.008;4.576;2023-08-17T10:55:58;53020.47;;;-143.47;64.13
35121;BME280;21297;52.008;4.576;2023-08-17T10:58:44;53164.16;;;-143.47;63.36
35121;BME280;21297;52.008;4.576;2023-08-17T11:04:18;53317.69;;;-143.47;62.40
35121;BME280;21297;52.008;4.576;2023-08-17T11:07:13;52866.91;;;-143.47;64.02
35121;BME280;21297;52.008;4.576;2023-08-17T11:10:00;52961.41;;;-143.47;62.44
35121;BME280;21297;52.008;4.576;2023-08-17T11:12:56;53109.03;;;-143.47;63.21
35121;BME280;21297;52.008;4.576;2023-08-17T11:15:45;52709.44;;;-143.47;63.98
35121;BME280;21297;52.008;4.576;2023-08-17T11:18:34;52607.09;;;-143.47;63.91
35121;BME280;21297;52.008;4.576;2023-08-17T11:21:20;52758.66;;;-143.47;63.85
35121;BME280;21297;52.008;4.576;2023-08-17T11:24:06;52996.84;;;-143.47;65.11
35121;BME280;21297;52.008;4.576;2023-08-17T11:26:55;53219.28;;;-143.47;62.95
35121;BME280;21297;52.008;4.576;2023-08-17T11:29:41;53030.28;;;-143.47;61.63
35121;BME280;21297;52.008;4.576;2023-08-17T11:32:27;53364.94;;;-143.47;61.23
35121;BME280;21297;52.008;4.576;2023-08-17T11:35:13;53193.69;;;-143.47;60.71
35121;BME280;21297;52.008;4.576;2023-08-17T11:37:59;53447.63;;;-143.47;59.67
35121;BME280;21297;52.008;4.576;2023-08-17T11:40:45;53280.31;;;-143.47;60.21
35121;BME280;21297;52.008;4.576;2023-08-17T11:43:32;52983.06;;;-143.47;60.72
35121;BME280;21297;52.008;4.576;2023-08-17T11:46:18;53162.19;;;-143.47;59.45
35121;BME280;21297;52.008;4.576;2023-08-17T11:49:05;53357.06;;;-143.47;59.38
35121;BME280;21297;52.008;4.576;2023-08-17T11:51:53;53502.75;;;-143.47;60.64
35121;BME280;21297;52.008;4.576;2023-08-17T11:54:40;52953.53;;;-143.47;62.91
35121;BME280;21297;52.008;4.576;2023-08-17T11:57:26;52644.50;;;-143.47;63.11
35121;BME280;21297;52.008;4.576;2023-08-17T12:00:18;53014.56;;;-143.47;61.68
35121;BME280;21297;52.008;4.576;2023-08-17T12:03:06;53097.22;;;-143.47;62.53
35121;BME280;21297;52.008;4.576;2023-08-17T12:05:51;53227.16;;;-143.47;64.06
35121;BME280;21297;52.008;4.576;2023-08-17T12:08:37;53042.09;;;-143.47;60.99
35121;BME280;21297;52.008;4.576;2023-08-17T12:11:24;53347.22;;;-143.47;60.55
35121;BME280;21297;52.008;4.576;2023-08-17T12:14:11;53408.25;;;-143.47;59.10
35121;BME280;21297;52.008;4.576;2023-08-17T12:16:57;53333.44;;;-143.47;59.74
35121;BME280;21297;52.008;4.576;2023-08-17T12:19:43;53095.25;;;-143.47;61.15
35121;BME280;21297;52.008;4.576;2023-08-17T12:22:29;53270.47;;;-143.47;62.44
35121;BME280;21297;52.008;4.576;2023-08-17T12:25:15;53172.03;;;-143.47;61.16
35121;BME280;21297;52.008;4.576;2023-08-17T12:28:01;53512.59;;;-143.47;61.09
35121;BME280;21297;52.008;4.576;2023-08-17T12:30:47;53085.41;;;-143.47;59.82
35121;BME280;21297;52.008;4.576;2023-08-17T12:33:42;53410.22;;;-143.47;59.64
35121;BME280;21297;52.008;4.576;2023-08-17T12:36:29;53006.69;;;-143.47;60.33
35121;BME280;21297;52.008;4.576;2023-08-17T12:39:14;52849.19;;;-143.47;61.33
35121;BME280;21297;52.008;4.576;2023-08-17T12:42:05;53026.34;;;-143.47;63.50
35121;BME280;21297;52.008;4.576;2023-08-17T12:44:50;52933.84;;;-143.47;65.74
35121;BME280;21297;52.008;4.576;2023-08-17T12:47:36;52774.41;;;-143.47;64.44
35121;BME280;21297;52.008;4.576;2023-08-17T12:50:23;52762.59;;;-143.47;66.30
35121;BME280;21297;52.008;4.576;2023-08-17T12:53:09;52857.06;;;-143.47;64.80
35121;BME280;21297;52.008;4.576;2023-08-17T12:55:54;52853.13;;;-143.47;64.97
35121;BME280;21297;52.008;4.576;2023-08-17T12:58:41;52872.81;;;-143.47;62.77
35121;BME280;21297;52.008;4.576;2023-08-17T13:01:27;53059.81;;;-143.47;62.80
35121;BME280;21297;52.008;4.576;2023-08-17T13:04:13;53221.25;;;-143.47;62.41
35121;BME280;21297;52.008;4.576;2023-08-17T13:06:58;52794.09;;;-143.47;63.55
35121;BME280;21297;52.008;4.576;2023-08-17T13:09:44;52715.34;;;-143.47;64.73
35121;BME280;21297;52.008;4.576;2023-08-17T13:12:32;53183.84;;;-143.47;64.82
35121;BME280;21297;52.008;4.576;2023-08-17T13:15:17;53085.41;;;-143.47;64.41
35121;BME280;21297;52.008;4.576;2023-08-17T13:18:03;53101.16;;;-143.47;64.81
35121;BME280;21297;52.008;4.576;2023-08-17T13:20:49;52774.41;;;-143.47;64.71
35121;BME280;21297;52.008;4.576;2023-08-17T13:23:35;53032.25;;;-143.47;65.10
35121;BME280;21297;52.008;4.576;2023-08-17T13:26:22;52668.13;;;-143.47;64.34
35121;BME280;21297;52.008;4.576;2023-08-17T13:29:08;52845.25;;;-143.47;65.17
35121;BME280;21297;52.008;4.576;2023-08-17T13:31:55;52965.34;;;-143.47;64.96
35121;BME280;21297;52.008;4.576;2023-08-17T13:34:40;53087.38;;;-143.47;64.77
35121;BME280;21297;52.008;4.576;2023-08-17T13:37:26;53057.84;;;-143.47;66.14
35121;BME280;21297;52.008;4.576;2023-08-17T13:40:13;53227.16;;;-143.47;64.71
35121;BME280;21297;52.008;4.576;2023-08-17T13:42:59;53164.16;;;-143.47;65.29
35121;BME280;21297;52.008;4.576;2023-08-17T13:45:45;52632.69;;;-143.47;64.94
35121;BME280;21297;52.008;4.576;2023-08-17T13:48:31;52821.66;;;-143.47;64.21
35121;BME280;21297;52.008;4.576;2023-08-17T13:51:17;53083.44;;;-143.47;65.32
35121;BME280;21297;52.008;4.576;2023-08-17T13:54:02;52654.34;;;-143.47;66.33
35121;BME280;21297;52.008;4.576;2023-08-17T13:56:48;52628.75;;;-143.47;64.78
35121;BME280;21297;52.008;4.576;2023-08-17T13:59:34;53048.00;;;-143.47;65.28
35121;BME280;21297;52.008;4.576;2023-08-17T14:02:20;52898.41;;;-143.47;65.30
35121;BME280;21297;52.008;4.576;2023-08-17T14:05:07;53022.44;;;-143.47;66.33
35121;BME280;21297;52.008;4.576;2023-08-17T14:07:53;52841.34;;;-143.47;66.50
35121;BME280;21297;52.008;4.576;2023-08-17T14:10:38;52924.00;;;-143.47;67.02
35121;BME280;21297;52.008;4.576;2023-08-17T14:13:24;52916.13;;;-143.47;67.73
35121;BME280;21297;52.008;4.576;2023-08-17T14:16:10;52788.19;;;-143.47;68.04
35121;BME280;21297;52.008;4.576;2023-08-17T14:18:55;52774.41;;;-143.47;68.78
35121;BME280;21297;52.008;4.576;2023-08-17T14:21:41;52740.94;;;-143.47;68.59
35121;BME280;21297;52.008;4.576;2023-08-17T14:24:28;52465.38;;;-143.47;70.01
35121;BME280;21297;52.008;4.576;2023-08-17T14:27:14;52849.19;;;-143.47;68.99
35121;BME280;21297;52.008;4.576;2023-08-17T14:30:00;52786.22;;;-143.47;70.40